Time;durP1;ratioP1;P1;durP2;ratioP2;P2;SDS_P1;SDS_P2;PMS_P1;PMS_P2;Temp;Humidity;BMP_temperature;BMP_pressure;BME280_temperature;BME280_humidity;BME280_pressure;Samples;Min_cycle;Max_cycle;Signal;HPM_P1;HPM_P2
2021/12/17 05:25:40;;;;;;;5.58;2.17;;;;;;;16.24;49.02;100946.63;1947499;72;28086;-54
2021/12/17 05:28:31;;;;;;;2.50;1.80;;;;;;;16.51;47.56;100941.11;1904101;73;28300;-51
2021/12/17 05:31:21;;;;;;;2.87;1.73;;;;;;;17.29;46.63;100943.19;1902539;73;28101;-55
2021/12/17 05:34:12;;;;;;;1.70;1.60;;;;;;;17.91;45.35;100939.94;1902539;75;28573;-56
2021/12/17 05:37:12;;;;;;;1.50;1.35;;;;;;;18.43;44.26;100936.86;1916704;73;28169;-58
2021/12/17 05:40:01;;;;;;;1.90;1.50;;;;;;;18.87;43.23;100937.28;1907049;73;28106;-56
2021/12/17 05:42:55;;;;;;;1.53;1.43;;;;;;;19.20;42.34;100945.67;1902333;75;28050;-55
2021/12/17 05:46:05;;;;;;;1.60;1.50;;;;;;;19.49;41.69;100943.66;1902188;75;28160;-57
2021/12/17 05:48:42;;;;;;;1.27;1.20;;;;;;;19.66;41.06;100940.66;1918382;73;28089;-56
2021/12/17 05:51:31;;;;;;;1.60;1.30;;;;;;;19.83;40.61;100946.86;1913335;73;28023;-56
2021/12/17 05:54:22;;;;;;;1.50;1.40;;;;;;;19.97;40.16;100944.20;1908453;73;28119;-56
2021/12/17 05:57:10;;;;;;;1.57;1.47;;;;;;;20.10;39.79;100946.30;1902400;75;28144;-58
2021/12/17 05:59:59;;;;;;;1.35;1.30;;;;;;;20.18;39.54;100944.88;1909454;73;28050;-58
2021/12/17 06:02:50;;;;;;;1.30;1.30;;;;;;;20.27;39.25;100949.27;1902401;75;28023;-57
2021/12/17 06:05:40;;;;;;;1.30;1.30;;;;;;;20.34;39.03;100952.95;1901310;75;28153;-57
2021/12/17 06:08:29;;;;;;;1.27;1.27;;;;;;;20.39;38.81;100950.52;1914402;74;28129;-57
2021/12/17 06:11:19;;;;;;;1.30;1.20;;;;;;;20.42;38.64;100946.03;1905802;74;28220;-56
2021/12/17 06:14:08;;;;;;;1.50;1.40;;;;;;;20.47;38.48;100949.56;1902367;75;28111;-52
2021/12/17 06:16:59;;;;;;;1.60;1.50;;;;;;;20.47;38.41;100943.60;1924572;73;28096;-55
2021/12/17 06:19:55;;;;;;;1.50;1.40;;;;;;;20.49;38.17;100944.26;1834264;77;28362;-53
2021/12/17 06:22:44;;;;;;;1.70;1.30;;;;;;;20.50;38.07;100942.38;1873015;75;28108;-54
2021/12/17 06:25:52;;;;;;;1.42;1.40;;;;;;;20.50;38.02;100947.33;1908684;74;28116;-55
2021/12/17 06:28:41;;;;;;;1.50;1.40;;;;;;;20.48;37.89;100955.37;1922269;73;28101;-57
2021/12/17 06:31:30;;;;;;;1.40;1.30;;;;;;;20.48;37.91;100959.47;1840096;76;28231;-54
2021/12/17 06:34:19;;;;;;;1.27;1.27;;;;;;;20.45;37.83;100953.00;1902209;75;28146;-55
2021/12/17 06:37:09;;;;;;;1.47;1.37;;;;;;;20.48;37.82;100971.75;1901651;75;28072;-56
2021/12/17 06:40:04;;;;;;;1.50;1.40;;;;;;;20.45;37.80;100979.79;1910351;73;28120;-56
2021/12/17 06:42:48;;;;;;;1.40;1.30;;;;;;;20.47;37.79;100980.95;1910061;73;28118;-53
2021/12/17 06:45:51;;;;;;;1.50;1.40;;;;;;;20.46;37.71;100982.01;1911470;73;28952;-55
2021/12/17 06:48:31;;;;;;;1.50;1.40;;;;;;;20.44;37.70;100984.08;1901548;75;28045;-56
2021/12/17 06:54:52;;;;;;;1.80;1.30;;;;;;;20.41;37.78;100978.98;1911608;73;28024;-54
2021/12/17 06:58:21;;;;;;;1.52;1.42;;;;;;;20.40;37.77;100974.54;1881671;73;28123;-55
2021/12/17 07:23:03;;;;;;;7.92;2.02;;;;;;;20.29;37.94;101000.91;1917428;73;28018;-56
2021/12/17 07:31:12;;;;;;;2.00;1.60;;;;;;;20.29;38.00;101009.95;1903207;73;28160;-55
2021/12/17 07:35:23;;;;;;;2.67;1.40;;;;;;;20.32;37.95;101010.96;1907366;74;28147;-56
2021/12/17 07:40:48;;;;;;;4.07;1.50;;;;;;;20.33;37.91;101020.83;1904800;74;28052;-59
2021/12/17 07:43:39;;;;;;;2.30;1.40;;;;;;;20.33;38.00;101023.55;1901996;75;28258;-56
2021/12/17 07:46:30;;;;;;;4.08;1.57;;;;;;;20.35;38.10;101022.85;1916627;73;28082;-56
2021/12/17 07:49:19;;;;;;;2.40;1.52;;;;;;;20.32;38.27;101023.75;1900481;74;28123;-56
2021/12/17 07:52:08;;;;;;;1.75;1.27;;;;;;;20.37;38.40;101024.91;1901866;75;28026;-55
2021/12/17 07:54:57;;;;;;;2.45;1.50;;;;;;;20.36;38.45;101030.02;1901271;73;28025;-59
2021/12/17 07:57:46;;;;;;;1.40;1.30;;;;;;;20.38;38.51;101034.78;1894376;74;28110;-59
2021/12/17 08:00:37;;;;;;;2.77;1.50;;;;;;;20.35;38.60;101040.59;1908911;74;28147;-59
2021/12/17 08:03:26;;;;;;;1.47;1.40;;;;;;;20.35;38.71;101040.59;1889130;75;28241;-60
2021/12/17 08:06:16;;;;;;;1.87;1.40;;;;;;;20.36;38.75;101037.36;1901403;75;28994;-60
2021/12/17 08:09:07;;;;;;;3.62;1.60;;;;;;;20.42;38.77;101051.66;1911501;74;28252;-61
2021/12/17 08:11:58;;;;;;;1.40;1.27;;;;;;;20.40;38.73;101054.55;1888493;75;28153;-60
2021/12/17 08:14:54;;;;;;;2.40;1.45;;;;;;;20.42;38.74;101057.94;1905590;73;38989;-60
2021/12/17 08:18:26;;;;;;;1.57;1.47;;;;;;;20.40;38.73;101060.52;1905719;74;28134;-60
2021/12/17 08:27:42;;;;;;;2.30;1.30;;;;;;;20.37;38.78;101068.58;1906436;74;28112;-60
2021/12/17 08:30:24;;;;;;;2.03;1.30;;;;;;;20.43;38.67;101076.53;1913654;73;28271;-60
2021/12/17 08:33:19;;;;;;;1.52;1.42;;;;;;;20.39;38.69;101069.75;1933984;73;28046;-61
2021/12/17 08:36:06;;;;;;;1.40;1.30;;;;;;;20.38;38.73;101070.25;1914366;73;28030;-59
2021/12/17 08:38:57;;;;;;;1.40;1.30;;;;;;;20.41;38.66;101067.68;1926953;73;28031;-60
2021/12/17 08:41:51;;;;;;;1.35;1.25;;;;;;;20.41;38.69;101072.62;1920518;73;28032;-60
2021/12/17 08:44:38;;;;;;;1.98;1.62;;;;;;;20.41;38.65;101077.23;1839835;76;28666;-60
2021/12/17 08:47:43;;;;;;;1.40;1.30;;;;;;;20.40;38.65;101076.38;1865432;75;28175;-61
2021/12/17 08:50:32;;;;;;;1.63;1.53;;;;;;;20.40;38.63;101080.98;1918765;73;28005;-60
2021/12/17 08:53:21;;;;;;;1.47;1.37;;;;;;;20.41;38.62;101078.09;1901720;75;28138;-60
2021/12/17 08:56:13;;;;;;;1.73;1.20;;;;;;;20.39;38.61;101078.79;1905328;73;28000;-60
2021/12/17 08:59:03;;;;;;;1.47;1.37;;;;;;;20.43;38.55;101079.27;1902697;73;28119;-60
2021/12/17 09:01:53;;;;;;;2.30;1.50;;;;;;;20.42;38.49;101079.77;1901526;75;28141;-60
2021/12/17 09:04:41;;;;;;;1.60;1.40;;;;;;;20.41;38.45;101077.23;1901768;73;28099;-59
2021/12/17 09:07:32;;;;;;;1.47;1.40;;;;;;;20.43;38.43;101082.84;1901990;75;28086;-59
2021/12/17 09:10:23;;;;;;;1.40;1.40;;;;;;;20.44;38.39;101082.34;1901336;75;28191;-61
2021/12/17 09:13:12;;;;;;;1.65;1.55;;;;;;;20.42;38.38;101076.22;1901748;75;28093;-60
2021/12/17 09:16:06;;;;;;;1.62;1.40;;;;;;;20.41;38.37;101075.36;1906018;73;28122;-60
2021/12/17 09:18:59;;;;;;;1.37;1.30;;;;;;;20.42;38.34;101078.41;1909780;73;28018;-62
2021/12/17 09:21:52;;;;;;;1.50;1.40;;;;;;;20.39;38.29;101076.57;1901515;75;28106;-60
2021/12/17 09:24:42;;;;;;;1.47;1.37;;;;;;;20.37;38.33;101070.45;1919620;73;28034;-60
2021/12/17 09:27:42;;;;;;;1.85;1.30;;;;;;;20.39;38.25;101071.11;1897988;75;28205;-62
2021/12/17 09:30:48;;;;;;;1.93;1.50;;;;;;;20.36;38.28;101075.05;1905151;73;28061;-60
2021/12/17 09:33:40;;;;;;;1.25;1.22;;;;;;;20.34;38.27;101074.39;1901705;75;28131;-60
2021/12/17 09:36:29;;;;;;;1.35;1.30;;;;;;;20.32;38.26;101068.27;1893899;74;28181;-60
2021/12/17 09:39:18;;;;;;;1.60;1.40;;;;;;;20.36;38.18;101079.14;1910801;74;28075;-59
2021/12/17 09:42:08;;;;;;;1.40;1.35;;;;;;;20.36;38.19;101082.38;1920290;74;28130;-60
2021/12/17 09:44:56;;;;;;;1.67;1.30;;;;;;;20.37;38.11;101084.95;1908792;73;28027;-61
2021/12/17 09:47:47;;;;;;;1.37;1.30;;;;;;;20.40;38.05;101082.34;1929193;73;28117;-60
2021/12/17 09:50:36;;;;;;;1.30;1.20;;;;;;;20.39;38.01;101091.08;1889026;75;28168;-60
2021/12/17 09:53:25;;;;;;;1.37;1.37;;;;;;;20.39;38.03;101094.31;1904579;74;28107;-61
2021/12/17 09:56:14;;;;;;;1.52;1.47;;;;;;;20.41;37.96;101089.52;1925711;73;28194;-60
2021/12/17 09:59:04;;;;;;;1.40;1.30;;;;;;;20.40;37.93;101085.93;1905423;73;28538;-60
2021/12/17 10:01:53;;;;;;;1.40;1.30;;;;;;;20.39;37.91;101082.89;1895400;74;31913;-60
2021/12/17 10:04:45;;;;;;;1.40;1.30;;;;;;;20.38;37.89;101078.44;1931810;73;28178;-60
2021/12/17 10:07:35;;;;;;;1.47;1.37;;;;;;;20.39;37.85;101069.75;1892012;74;28197;-60
2021/12/17 10:10:41;;;;;;;1.82;1.50;;;;;;;20.38;37.87;101072.98;1914499;73;28052;-59
2021/12/17 10:13:35;;;;;;;1.70;1.60;;;;;;;20.40;37.81;101072.79;1899284;74;28644;-59
2021/12/17 10:16:42;;;;;;;1.77;1.67;;;;;;;20.38;37.81;101067.53;1901901;75;32041;-60
2021/12/17 10:19:53;;;;;;;1.80;1.70;;;;;;;20.37;37.88;101068.58;1901687;75;28112;-60
2021/12/17 10:22:44;;;;;;;1.92;1.70;;;;;;;20.38;37.79;101065.30;1901755;75;28113;-60
2021/12/17 10:25:35;;;;;;;1.93;1.73;;;;;;;20.36;37.83;101066.86;1889406;75;28081;-59
2021/12/17 10:28:24;;;;;;;2.02;1.85;;;;;;;20.33;37.90;101067.73;1901629;74;28239;-60
2021/12/17 10:31:13;;;;;;;3.85;1.92;;;;;;;20.34;37.84;101059.89;1926919;73;28129;-60
2021/12/17 10:34:05;;;;;;;2.17;1.92;;;;;;;20.36;37.85;101064.64;1918152;73;28034;-60
2021/12/17 10:36:53;;;;;;;2.40;2.00;;;;;;;20.36;37.81;101060.55;1924282;73;28211;-60
2021/12/17 10:39:42;;;;;;;2.40;2.20;;;;;;;20.39;37.77;101052.86;1905156;73;28281;-60
2021/12/17 10:42:35;;;;;;;1.92;1.82;;;;;;;20.37;37.80;101048.62;1913992;73;28116;-60
2021/12/17 10:45:30;;;;;;;2.05;1.95;;;;;;;20.36;37.77;101043.67;1903266;73;28178;-61
2021/12/17 10:48:32;;;;;;;2.43;2.07;;;;;;;20.39;37.77;101040.58;1913418;73;28327;-61
2021/12/17 10:54:29;;;;;;;2.30;2.10;;;;;;;20.37;37.76;101033.09;1909243;73;28566;-61
2021/12/17 10:57:17;;;;;;;2.35;2.08;;;;;;;20.36;37.77;101027.30;1911061;73;28149;-60
2021/12/17 11:00:08;;;;;;;2.30;2.10;;;;;;;20.36;37.79;101025.08;1901434;75;28156;-61
2021/12/17 11:02:58;;;;;;;2.15;2.05;;;;;;;20.39;37.68;101022.84;1901659;75;28082;-60
2021/12/17 11:05:47;;;;;;;2.15;2.00;;;;;;;20.37;37.71;101022.18;1908827;73;28091;-60
2021/12/17 11:08:37;;;;;;;2.45;2.02;;;;;;;20.38;37.67;101028.47;1901397;75;28277;-60
2021/12/17 11:11:28;;;;;;;2.08;1.98;;;;;;;20.38;37.67;101028.47;1910565;73;28157;-60
2021/12/17 11:14:19;;;;;;;1.92;1.82;;;;;;;20.40;37.67;101016.33;1901728;75;28199;-61
2021/12/17 11:17:08;;;;;;;2.15;1.95;;;;;;;20.37;37.68;101029.52;1901608;75;28157;-60
2021/12/17 11:19:59;;;;;;;2.20;2.00;;;;;;;20.31;37.82;101024.77;1924334;73;28082;-60
2021/12/17 11:22:49;;;;;;;3.27;1.90;;;;;;;20.34;37.77;101022.54;1901509;75;28202;-60
2021/12/17 11:25:40;;;;;;;2.87;2.05;;;;;;;20.34;37.71;101021.17;1901640;75;28089;-61
2021/12/17 11:28:28;;;;;;;2.20;2.00;;;;;;;20.32;37.82;101026.48;1899490;73;28105;-62
2021/12/17 11:31:18;;;;;;;2.17;1.98;;;;;;;20.31;37.77;101037.91;1922485;73;28071;-60
2021/12/17 11:34:07;;;;;;;1.75;1.65;;;;;;;20.36;37.75;101040.94;1889351;75;28215;-60
2021/12/17 11:36:56;;;;;;;1.95;1.85;;;;;;;20.39;37.64;101040.58;1889452;75;28056;-60
2021/12/17 11:39:51;;;;;;;1.90;1.80;;;;;;;20.37;37.68;101036.33;1916677;74;28126;-60
2021/12/17 11:43:10;;;;;;;1.80;1.70;;;;;;;20.38;37.64;101034.78;1900439;74;28187;-59
2021/12/17 11:46:00;;;;;;;3.30;1.90;;;;;;;20.35;37.70;101028.31;1911854;73;32171;-60
2021/12/17 11:48:55;;;;;;;1.90;1.80;;;;;;;20.36;37.69;101025.93;1901601;75;28207;-60
2021/12/17 11:51:46;;;;;;;1.98;1.85;;;;;;;20.37;37.69;101027.64;1889422;75;28231;-60
2021/12/17 11:54:36;;;;;;;2.50;2.00;;;;;;;20.37;37.65;101023.55;1932828;73;28036;-60
2021/12/17 11:57:27;;;;;;;2.20;2.00;;;;;;;20.39;37.62;101021.48;1897242;74;28671;-59
2021/12/17 12:00:18;;;;;;;1.85;1.70;;;;;;;20.34;37.66;101016.22;1889638;75;28255;-62
2021/12/17 12:03:16;;;;;;;1.93;1.83;;;;;;;20.34;37.61;101014.86;1889576;75;28209;-60
2021/12/17 12:06:05;;;;;;;1.87;1.77;;;;;;;20.33;37.63;101007.19;1882636;75;28122;-60
2021/12/17 12:08:56;;;;;;;2.33;1.82;;;;;;;20.36;37.66;101007.34;1904316;74;28263;-61
2021/12/17 12:11:48;;;;;;;2.47;1.73;;;;;;;20.36;37.66;100993.18;1902013;75;28084;-60
2021/12/17 12:14:35;;;;;;;2.25;1.80;;;;;;;20.35;37.63;100989.28;1889410;75;28244;-60
2021/12/17 12:18:03;;;;;;;2.30;1.60;;;;;;;20.32;37.69;100986.40;1889459;75;28179;-60
2021/12/17 12:20:57;;;;;;;2.10;1.90;;;;;;;20.33;37.68;100988.08;1889508;75;28181;-60
2021/12/17 12:23:55;;;;;;;1.80;1.70;;;;;;;20.32;37.73;100982.81;1911808;74;28275;-60
2021/12/17 12:26:46;;;;;;;1.85;1.75;;;;;;;20.32;37.69;100980.09;1901737;75;28043;-62
2021/12/17 12:29:35;;;;;;;1.80;1.70;;;;;;;20.35;37.71;100983.83;1889498;75;28118;-61
2021/12/17 12:32:24;;;;;;;2.67;1.65;;;;;;;20.36;37.63;100983.63;1901697;75;28206;-60
2021/12/17 12:35:12;;;;;;;1.92;1.82;;;;;;;20.34;37.65;100982.97;1899292;74;28035;-62
2021/12/17 12:38:20;;;;;;;1.97;1.73;;;;;;;20.35;37.68;100980.55;1931000;73;28110;-61
2021/12/17 12:41:09;;;;;;;2.27;1.77;;;;;;;20.35;37.64;100979.73;1889327;75;28079;-60
2021/12/17 12:43:57;;;;;;;1.70;1.60;;;;;;;20.32;37.68;100979.58;1901683;75;28105;-60
2021/12/17 12:46:56;;;;;;;2.10;1.80;;;;;;;20.33;37.71;100976.31;1901733;75;28289;-60
2021/12/17 12:50:08;;;;;;;1.92;1.70;;;;;;;20.32;37.66;100975.48;1898499;74;28114;-60
2021/12/17 12:53:05;;;;;;;1.90;1.65;;;;;;;20.36;37.68;100977.31;1903584;73;28044;-61
2021/12/17 12:55:54;;;;;;;1.60;1.50;;;;;;;20.33;37.68;100981.25;1889810;75;28157;-59
2021/12/17 12:58:45;;;;;;;1.62;1.52;;;;;;;20.32;37.73;100978.22;1901826;75;28174;-60
2021/12/17 13:01:34;;;;;;;2.05;1.80;;;;;;;20.34;37.67;100978.02;1901743;75;28145;-61
2021/12/17 13:04:23;;;;;;;1.80;1.70;;;;;;;20.34;37.65;100978.02;1911186;74;28597;-60
2021/12/17 13:07:13;;;;;;;1.60;1.50;;;;;;;20.34;37.70;100969.83;1901875;75;28207;-61
2021/12/17 13:10:09;;;;;;;1.97;1.87;;;;;;;20.35;37.64;100970.17;1909973;74;28087;-60
2021/12/17 13:13:17;;;;;;;1.67;1.57;;;;;;;20.34;37.66;100968.47;1919012;73;28114;-60
2021/12/17 13:16:21;;;;;;;1.87;1.77;;;;;;;20.33;37.68;100968.13;1889556;75;28107;-60
2021/12/17 13:22:30;;;;;;;1.77;1.67;;;;;;;20.30;37.73;100965.78;1889364;74;28080;-61
2021/12/17 13:25:04;;;;;;;1.85;1.75;;;;;;;20.31;37.72;100960.13;1889529;75;28224;-61
2021/12/17 13:27:56;;;;;;;2.37;1.90;;;;;;;20.31;37.67;100957.41;1901902;75;28139;-59
2021/12/17 13:30:45;;;;;;;1.90;1.70;;;;;;;20.30;37.73;100954.36;1899069;74;28565;-60
2021/12/17 13:33:39;;;;;;;1.57;1.47;;;;;;;20.30;37.67;100952.14;1924020;73;28121;-60
2021/12/17 13:36:28;;;;;;;1.90;1.80;;;;;;;20.33;37.67;100949.88;1889370;75;28159;-60
2021/12/17 13:39:16;;;;;;;2.00;1.70;;;;;;;20.32;37.66;100942.73;1901873;75;28150;-60
2021/12/17 13:42:06;;;;;;;1.80;1.70;;;;;;;20.33;37.65;100938.96;1889603;75;28015;-60
2021/12/17 13:44:57;;;;;;;2.22;1.80;;;;;;;20.33;37.61;100938.96;1901770;75;28029;-59
2021/12/17 13:47:50;;;;;;;1.70;1.60;;;;;;;20.32;37.67;100945.47;1894705;74;28071;-60
2021/12/17 13:50:44;;;;;;;1.80;1.70;;;;;;;20.31;37.67;100936.94;1900132;74;28142;-60
2021/12/17 13:53:32;;;;;;;2.22;1.65;;;;;;;20.33;37.67;100938.96;1901915;75;28172;-61
2021/12/17 13:56:20;;;;;;;1.98;1.77;;;;;;;20.33;37.68;100940.33;1901696;74;28091;-60
2021/12/17 13:59:10;;;;;;;1.60;1.50;;;;;;;20.29;37.64;100939.00;1906934;73;28142;-61
2021/12/17 14:01:58;;;;;;;2.00;1.82;;;;;;;20.30;37.67;100939.86;1901897;73;28204;-60
2021/12/17 14:05:05;;;;;;;1.75;1.60;;;;;;;20.31;37.68;100930.11;1906361;74;28164;-59
2021/12/17 14:08:00;;;;;;;1.70;1.60;;;;;;;20.33;37.66;100934.86;1901710;75;28567;-60
2021/12/17 14:10:50;;;;;;;1.65;1.55;;;;;;;20.31;37.68;100940.17;1911880;74;32994;-61
2021/12/17 14:13:42;;;;;;;1.80;1.70;;;;;;;20.30;37.70;100943.45;1902086;75;28328;-60
2021/12/17 14:16:41;;;;;;;1.62;1.60;;;;;;;20.29;37.70;100943.09;1901948;75;28121;-59
2021/12/17 14:19:37;;;;;;;1.90;1.70;;;;;;;20.28;37.71;100945.48;1901807;75;28225;-60
2021/12/17 14:22:28;;;;;;;1.92;1.82;;;;;;;20.28;37.68;100940.56;1910061;74;28040;-60
2021/12/17 14:25:28;;;;;;;1.70;1.60;;;;;;;20.26;37.75;100941.23;1908492;73;28099;-60
2021/12/17 14:28:25;;;;;;;1.77;1.67;;;;;;;20.29;37.67;100940.38;1897168;74;28104;-61
2021/12/17 14:31:18;;;;;;;1.70;1.60;;;;;;;20.26;37.72;100938.00;1901889;75;28182;-60
2021/12/17 14:34:06;;;;;;;1.70;1.60;;;;;;;20.28;37.70;100939.20;1905997;74;28092;-60
2021/12/17 14:37:03;;;;;;;1.70;1.60;;;;;;;20.29;37.71;100936.79;1911666;74;28229;-60
2021/12/17 14:39:54;;;;;;;1.70;1.60;;;;;;;20.27;37.72;100938.86;1901789;75;28106;-61
2021/12/17 14:42:44;;;;;;;1.67;1.57;;;;;;;20.28;37.73;100940.56;1902878;73;28121;-60
2021/12/17 14:45:41;;;;;;;1.50;1.40;;;;;;;20.24;37.75;100931.89;1904711;74;28270;-60
2021/12/17 14:48:35;;;;;;;2.07;1.70;;;;;;;20.25;37.76;100939.05;1901078;75;28064;-60
2021/12/17 15:03:27;;;;;;;1.57;1.47;;;;;;;20.26;37.71;100929.81;1905115;74;28093;-60
2021/12/17 15:06:11;;;;;;;1.70;1.60;;;;;;;20.20;37.75;100929.17;1884756;75;28136;-60
2021/12/17 15:09:01;;;;;;;2.20;1.70;;;;;;;20.21;37.81;100928.66;1927125;73;28599;-60
2021/12/17 15:11:58;;;;;;;1.77;1.55;;;;;;;20.19;37.74;100923.37;1889313;75;28190;-60
2021/12/17 15:14:40;;;;;;;1.75;1.60;;;;;;;20.22;37.69;100923.55;1889433;75;28126;-61
2021/12/17 15:17:28;;;;;;;1.60;1.50;;;;;;;20.22;37.75;100928.50;1901802;75;32639;-60
2021/12/17 15:20:18;;;;;;;1.70;1.60;;;;;;;20.21;37.72;100924.56;1889283;75;28182;-60
2021/12/17 15:23:08;;;;;;;1.75;1.65;;;;;;;20.22;37.69;100924.91;1911203;74;28134;-59
2021/12/17 15:25:57;;;;;;;1.53;1.43;;;;;;;20.24;37.66;100929.16;1901838;75;28135;-61
2021/12/17 15:28:45;;;;;;;1.60;1.50;;;;;;;20.25;37.63;100928.65;1912642;73;28569;-60
2021/12/17 15:31:34;;;;;;;1.50;1.40;;;;;;;20.27;37.56;100929.30;1895657;74;28286;-61
2021/12/17 15:34:23;;;;;;;2.70;1.70;;;;;;;20.26;37.58;100933.05;1920535;73;28146;-60
2021/12/17 15:37:11;;;;;;;1.70;1.60;;;;;;;20.25;37.56;100933.59;1919375;73;28182;-60
2021/12/17 15:40:01;;;;;;;1.75;1.65;;;;;;;20.25;37.51;100929.50;1924582;73;28093;-60
2021/12/17 15:42:50;;;;;;;1.67;1.57;;;;;;;20.25;37.52;100926.77;1901625;75;28134;-60
2021/12/17 15:45:41;;;;;;;1.70;1.60;;;;;;;20.27;37.50;100927.43;1885381;75;28235;-60
2021/12/17 15:48:30;;;;;;;1.70;1.60;;;;;;;20.22;37.54;100923.04;1919942;73;28164;-60
2021/12/17 15:51:19;;;;;;;1.90;1.60;;;;;;;20.24;37.53;100930.52;1924299;73;28585;-60
2021/12/17 15:54:09;;;;;;;1.60;1.50;;;;;;;20.25;37.52;100930.02;1901567;74;28204;-60
2021/12/17 15:56:58;;;;;;;1.77;1.67;;;;;;;20.22;37.54;100927.13;1901623;75;28189;-60
2021/12/17 15:59:49;;;;;;;1.77;1.67;;;;;;;20.22;37.47;100927.64;1901803;75;28149;-62
2021/12/17 16:02:40;;;;;;;1.60;1.50;;;;;;;20.23;37.47;100924.75;1901719;75;31031;-61
2021/12/17 16:05:28;;;;;;;1.70;1.60;;;;;;;20.21;37.50;100933.58;1901670;75;28027;-61
2021/12/17 16:08:17;;;;;;;1.70;1.60;;;;;;;20.21;37.48;100920.48;1922039;73;28151;-60
2021/12/17 16:17:59;;;;;;;1.50;1.50;;;;;;;20.17;37.49;100909.58;1901750;75;28191;-60
2021/12/17 16:23:12;;;;;;;1.70;1.60;;;;;;;20.18;37.56;100914.02;1924189;73;28164;-60
2021/12/17 16:26:02;;;;;;;1.67;1.57;;;;;;;20.15;37.60;100919.32;1901781;75;28100;-60
2021/12/17 16:28:52;;;;;;;1.70;1.60;;;;;;;20.16;37.61;100912.84;1901875;75;28011;-60
2021/12/17 16:31:42;;;;;;;1.57;1.47;;;;;;;20.16;37.61;100916.94;1931053;73;28118;-62
2021/12/17 16:34:30;;;;;;;1.70;1.50;;;;;;;20.14;37.64;100920.34;1907893;73;28191;-60
2021/12/17 16:37:21;;;;;;;1.62;1.52;;;;;;;20.14;37.64;100921.70;1901660;75;28166;-61
2021/12/17 16:40:10;;;;;;;1.50;1.40;;;;;;;20.16;37.67;100921.54;1901887;75;28621;-60
2021/12/17 16:42:59;;;;;;;1.40;1.40;;;;;;;20.16;37.61;100922.39;1911669;74;28154;-61
2021/12/17 16:46:04;;;;;;;1.60;1.50;;;;;;;20.18;37.63;100919.47;1901866;75;28058;-62
2021/12/17 16:48:41;;;;;;;1.62;1.52;;;;;;;20.16;37.62;100918.81;1898537;74;28159;-61
2021/12/17 16:51:30;;;;;;;1.50;1.50;;;;;;;20.17;37.61;100919.98;1901864;75;28205;-61
2021/12/17 16:54:19;;;;;;;1.57;1.50;;;;;;;20.15;37.64;100924.77;1911500;74;28138;-60
2021/12/17 16:57:07;;;;;;;1.42;1.40;;;;;;;20.16;37.58;100924.27;1901542;75;28119;-60
2021/12/17 16:59:58;;;;;;;1.77;1.67;;;;;;;20.18;37.58;100921.69;1918285;73;28179;-60
2021/12/17 17:02:47;;;;;;;1.77;1.67;;;;;;;20.18;37.52;100922.20;1911506;74;28227;-61
2021/12/17 17:05:35;;;;;;;1.60;1.50;;;;;;;20.18;37.58;100921.69;1911407;74;28253;-60
2021/12/17 17:08:25;;;;;;;2.17;1.60;;;;;;;20.15;37.59;100916.59;1901687;75;28090;-61
2021/12/17 17:11:14;;;;;;;1.70;1.60;;;;;;;20.16;37.58;100921.03;1889462;75;28064;-60
2021/12/17 17:14:04;;;;;;;1.70;1.60;;;;;;;20.17;37.56;100917.25;1911587;74;28168;-60
2021/12/17 17:16:52;;;;;;;1.70;1.60;;;;;;;20.17;37.53;100919.13;1901451;75;28089;-60
2021/12/17 17:19:42;;;;;;;1.40;1.40;;;;;;;20.17;37.51;100918.61;1889331;75;28114;-60
2021/12/17 17:22:31;;;;;;;1.52;1.45;;;;;;;20.16;37.55;100912.84;1901842;75;28419;-60
2021/12/17 17:25:21;;;;;;;1.72;1.62;;;;;;;20.14;37.52;100920.88;1901524;75;28072;-60
2021/12/17 17:28:10;;;;;;;1.55;1.50;;;;;;;20.14;37.50;100917.61;1924117;73;28016;-60
2021/12/17 17:30:58;;;;;;;1.70;1.60;;;;;;;20.16;37.45;100914.21;1889478;75;28106;-60
2021/12/17 17:33:49;;;;;;;1.90;1.80;;;;;;;20.17;37.41;100911.80;1901431;74;28086;-60
2021/12/17 17:36:40;;;;;;;1.52;1.50;;;;;;;20.18;37.44;100910.78;1879203;74;28145;-60
2021/12/17 17:39:28;;;;;;;2.60;1.60;;;;;;;20.13;37.44;100917.30;1816235;77;28373;-60
2021/12/17 17:42:16;;;;;;;1.80;1.60;;;;;;;20.16;37.44;100911.48;1899818;74;28066;-61
2021/12/17 17:45:07;;;;;;;1.67;1.57;;;;;;;20.15;37.38;100914.38;1906878;74;28125;-60
2021/12/17 17:47:55;;;;;;;1.60;1.50;;;;;;;20.14;37.40;100921.70;1915490;74;28135;-60
2021/12/17 17:50:46;;;;;;;1.62;1.52;;;;;;;20.13;37.41;100926.84;1920024;74;28034;-60
2021/12/17 17:53:35;;;;;;;1.60;1.50;;;;;;;20.12;37.44;100923.77;1904225;74;28171;-59
2021/12/17 17:56:23;;;;;;;1.70;1.60;;;;;;;20.11;37.42;100926.19;1893839;74;28080;-60
2021/12/17 17:59:12;;;;;;;1.62;1.52;;;;;;;20.06;37.49;100929.97;1895082;74;28116;-60
2021/12/17 18:02:00;;;;;;;1.80;1.70;;;;;;;20.04;37.62;100930.67;1896435;74;28160;-60
2021/12/17 18:04:48;;;;;;;1.60;1.50;;;;;;;20.03;37.66;100928.97;1900509;74;28305;-60
2021/12/17 18:07:37;;;;;;;1.70;1.60;;;;;;;19.98;37.67;100933.61;1891690;74;28187;-61
2021/12/17 18:10:25;;;;;;;1.60;1.50;;;;;;;19.98;37.70;100938.20;1910644;74;28017;-60
2021/12/17 18:13:18;;;;;;;1.70;1.60;;;;;;;19.98;37.70;100936.34;1913484;74;28094;-60
2021/12/17 18:16:05;;;;;;;1.60;1.50;;;;;;;19.95;37.73;100933.96;1890449;74;28154;-60
2021/12/17 18:18:55;;;;;;;2.10;1.75;;;;;;;19.93;37.82;100933.81;1886874;74;28313;-61
2021/12/17 18:21:44;;;;;;;1.70;1.60;;;;;;;19.94;37.87;100936.88;1899312;74;28023;-60
2021/12/17 18:24:33;;;;;;;1.80;1.70;;;;;;;19.94;37.88;100936.88;1890932;74;28165;-60
2021/12/17 18:27:21;;;;;;;1.87;1.77;;;;;;;19.91;37.90;100936.73;1910111;74;28032;-59
2021/12/17 18:30:15;;;;;;;1.70;1.60;;;;;;;19.92;37.91;100944.41;1899204;74;28069;-60
2021/12/17 18:33:06;;;;;;;1.70;1.60;;;;;;;19.94;37.89;100945.06;1908413;74;28003;-59
2021/12/17 18:35:55;;;;;;;2.00;1.80;;;;;;;19.91;37.94;100946.27;1891608;74;28118;-59
2021/12/17 18:38:44;;;;;;;1.62;1.52;;;;;;;19.93;37.94;100944.72;1911485;74;28102;-60
2021/12/17 18:41:43;;;;;;;1.80;1.70;;;;;;;19.91;37.95;100945.42;1901841;75;28183;-60
2021/12/17 18:44:23;;;;;;;2.00;1.55;;;;;;;19.89;38.03;100942.03;1901556;75;28155;-60
2021/12/17 18:47:11;;;;;;;1.70;1.60;;;;;;;19.93;37.98;100939.27;1889509;75;28215;-60
2021/12/17 18:49:59;;;;;;;1.87;1.77;;;;;;;19.90;38.00;100929.59;1923848;73;28604;-60
2021/12/17 18:52:48;;;;;;;2.33;1.70;;;;;;;19.88;38.09;100931.63;1905810;74;28288;-60
2021/12/17 18:55:41;;;;;;;1.87;1.77;;;;;;;19.90;38.11;100931.47;1918242;73;28286;-60
2021/12/17 18:58:30;;;;;;;2.40;1.80;;;;;;;19.89;38.14;100929.77;1898887;74;28119;-59
2021/12/17 19:01:19;;;;;;;1.90;1.65;;;;;;;19.92;38.07;100926.67;1898632;74;28149;-59
2021/12/17 19:04:09;;;;;;;1.80;1.70;;;;;;;19.90;38.10;100929.59;1901547;73;28205;-59
2021/12/17 19:06:58;;;;;;;2.22;1.80;;;;;;;19.92;38.10;100923.95;1900750;73;28280;-61
2021/12/17 19:09:47;;;;;;;1.77;1.67;;;;;;;19.87;38.17;100921.77;1888555;75;28140;-60
2021/12/17 19:12:36;;;;;;;1.77;1.67;;;;;;;19.89;38.18;100921.58;1910061;74;28191;-60
2021/12/17 19:15:25;;;;;;;3.07;1.80;;;;;;;19.90;38.20;100924.66;1907281;73;28195;-60
2021/12/17 19:18:27;;;;;;;1.77;1.57;;;;;;;19.90;38.22;100923.29;1889055;74;28193;-60
2021/12/17 19:24:00;;;;;;;1.80;1.67;;;;;;;19.93;38.20;100921.53;1869720;74;28611;-60
2021/12/17 19:26:48;;;;;;;1.85;1.70;;;;;;;19.92;38.22;100922.08;1904749;73;30058;-60
2021/12/17 19:29:39;;;;;;;1.70;1.60;;;;;;;19.91;38.26;100923.61;1889294;74;33005;-60
2021/12/17 19:32:28;;;;;;;1.80;1.70;;;;;;;19.88;38.30;100921.27;1903700;73;28041;-60
2021/12/17 19:35:19;;;;;;;1.98;1.87;;;;;;;19.89;38.34;100921.07;1897128;74;28072;-62
2021/12/17 19:38:08;;;;;;;1.72;1.62;;;;;;;19.90;38.28;100915.97;1916293;73;28188;-60
2021/12/17 19:40:56;;;;;;;3.62;2.85;;;;;;;19.91;38.34;100919.52;1911110;74;28072;-61
2021/12/17 19:43:45;;;;;;;3.27;2.37;;;;;;;19.89;37.88;100927.03;1926292;73;28082;-61
2021/12/17 19:46:54;;;;;;;3.20;2.10;;;;;;;19.89;37.97;100921.58;1937360;73;28219;-62
2021/12/17 19:52:20;;;;;;;2.77;2.10;;;;;;;19.85;38.09;100919.75;1911399;74;28106;-61
2021/12/17 19:55:10;;;;;;;2.60;2.00;;;;;;;19.85;38.22;100918.89;1911231;74;28082;-61